This is the latest recevied weather packets stored in our database for station/object N4OGP-WX. If no packets are shown the sender has not sent any weather packets the latest 1 day(s).
| Time | Temp. | Humidity | Pressure | Rain* | Wind** | Luminosity | Snow |
|---|---|---|---|---|---|---|---|
| 1778057697 | 22.22° C | 91% | 1009.9 hPa | 0 mm | - | - | - |
| 1778057637 | 23.89° C | 42% | 1020.4 hPa | 0 mm | - | - | - |
| 1778057577 | 23.89° C | 42% | 1020.4 hPa | 0 mm | - | - | - |
| 1778057517 | 23.89° C | 42% | 1020.4 hPa | 0 mm | - | - | - |
| 1778057457 | 22.22° C | 91% | 1009.9 hPa | 0 mm | - | - | - |
| 1778057397 | 22.22° C | 91% | 1009.9 hPa | 0 mm | - | - | - |
| 1778057337 | 23.89° C | 42% | 1020.4 hPa | 0 mm | - | - | - |
| 1778057247 | 22.22° C | 91% | 1009.9 hPa | 0 mm | - | - | - |
| 1778057187 | 23.89° C | 42% | 1020.4 hPa | 0 mm | - | - | - |
| 1778057127 | 22.22° C | 91% | 1009.9 hPa | 0 mm | - | - | - |
| 1778057067 | 23.89° C | 42% | 1020.4 hPa | 0 mm | - | - | - |
| 1778057007 | 22.22° C | 91% | 1009.8 hPa | 0 mm | - | - | - |
| 1778056947 | 22.22° C | 90% | 1009.8 hPa | 0 mm | - | - | - |
| 1778056857 | 22.22° C | 90% | 1009.8 hPa | 0 mm | - | - | - |
| 1778056797 | 22.22° C | 90% | 1009.9 hPa | 0 mm | - | - | - |
| 1778056737 | 23.89° C | 42% | 1020.4 hPa | 0 mm | - | - | - |
| 1778056677 | 23.89° C | 42% | 1020.4 hPa | 0 mm | - | - | - |
| 1778056617 | 23.89° C | 42% | 1020.4 hPa | 0 mm | - | - | - |
| 1778056527 | 23.89° C | 42% | 1020.4 hPa | 0 mm | - | - | - |
| 1778056467 | 22.22° C | 90% | 1009.9 hPa | 0 mm | - | - | - |
| 1778056377 | 23.89° C | 42% | 1020.4 hPa | 0 mm | - | - | - |
| 1778056317 | 22.22° C | 90% | 1009.9 hPa | 0 mm | - | - | - |
| 1778056257 | 23.89° C | 42% | 1020.4 hPa | 0 mm | - | - | - |
| 1778056197 | 22.22° C | 90% | 1010 hPa | 0 mm | - | - | - |
| 1778056107 | 22.22° C | 90% | 1009.9 hPa | 0 mm | - | - | - |
* Rain latest hour (hover to see other rain measurements)
** Current wind speed in m/s (hover to see current wind gust speed)